createdAt,value
2023-05-12T00:01:30.681Z,74.69
2023-05-12T00:03:57.931Z,75.15
2023-05-12T00:06:25.156Z,75.60
2023-05-12T00:08:52.296Z,75.59
2023-05-12T00:11:19.464Z,76.11
2023-05-12T00:13:46.715Z,76.39
2023-05-12T00:16:15.767Z,75.59
2023-05-12T00:18:42.973Z,75.26
2023-05-12T00:21:10.159Z,76.91
2023-05-12T00:23:37.317Z,77.42
2023-05-12T00:26:05.033Z,77.48
2023-05-12T00:28:32.608Z,77.69
2023-05-12T00:31:04.122Z,78.29
2023-05-12T00:33:31.533Z,78.43
2023-05-12T00:36:00.625Z,78.54
2023-05-12T00:38:28.372Z,78.06
2023-05-12T00:40:55.756Z,77.53
2023-05-12T00:43:22.875Z,77.71
2023-05-12T00:45:50.058Z,78.58
2023-05-12T00:48:17.272Z,78.54
2023-05-12T00:50:44.816Z,78.35
2023-05-12T00:53:13.337Z,78.69
2023-05-12T00:55:40.658Z,78.23
2023-05-12T00:58:08.272Z,78.02
2023-05-12T01:00:36.459Z,78.09
2023-05-12T01:03:04.730Z,78.80
2023-05-12T01:05:39.523Z,78.53
2023-05-12T01:08:07.888Z,77.99
2023-05-12T01:10:36.220Z,77.54
2023-05-12T01:13:03.299Z,76.85
2023-05-12T01:15:32.609Z,75.24
2023-05-12T01:18:03.928Z,76.76
2023-05-12T01:20:33.270Z,76.99
2023-05-12T01:23:02.430Z,77.57
2023-05-12T01:25:32.869Z,77.08
2023-05-12T01:28:02.944Z,78.01
2023-05-12T01:30:32.366Z,76.72
2023-05-12T01:32:59.597Z,76.84
2023-05-12T01:35:26.958Z,77.21
2023-05-12T01:38:03.267Z,77.43
2023-05-12T01:40:32.432Z,77.12
2023-05-12T01:43:00.228Z,76.88
2023-05-12T01:45:31.044Z,76.23
2023-05-12T01:47:58.130Z,77.59
2023-05-12T01:50:25.805Z,77.35
2023-05-12T01:52:53.028Z,77.14
2023-05-12T01:55:20.861Z,79.33
2023-05-12T01:57:54.369Z,79.82
2023-05-12T02:00:21.947Z,79.07
2023-05-12T02:02:51.825Z,78.78
2023-05-12T02:05:19.127Z,79.42
2023-05-12T02:07:49.526Z,79.22
2023-05-12T02:10:18.349Z,78.72
2023-05-12T02:12:45.887Z,79.17
2023-05-12T02:15:13.325Z,79.86
2023-05-12T02:17:45.774Z,80.18
2023-05-12T02:20:14.394Z,80.23
2023-05-12T02:22:43.816Z,80.99
2023-05-12T02:25:11.156Z,81.29
2023-05-12T02:27:38.215Z,81.63
2023-05-12T02:30:06.732Z,81.53
2023-05-12T02:32:33.991Z,81.82
2023-05-12T02:35:01.412Z,82.14
2023-05-12T02:37:28.901Z,82.38
2023-05-12T02:39:56.061Z,81.50
2023-05-12T02:42:24.139Z,82.19
2023-05-12T02:44:51.445Z,83.48
2023-05-12T02:47:18.490Z,85.04
2023-05-12T02:49:45.528Z,84.92
2023-05-12T02:52:13.253Z,85.53
2023-05-12T02:54:40.499Z,85.93
2023-05-12T02:57:07.758Z,86.52
2023-05-12T02:59:34.840Z,86.38
2023-05-12T03:02:02.084Z,86.51
2023-05-12T03:04:29.249Z,86.08
2023-05-12T03:06:57.266Z,86.06
2023-05-12T03:09:24.461Z,86.53
2023-05-12T03:11:51.615Z,87.67
2023-05-12T03:14:20.304Z,88.61
2023-05-12T03:16:47.687Z,89.64
2023-05-12T03:19:14.876Z,89.20
2023-05-12T03:21:42.151Z,88.95
2023-05-12T03:24:09.680Z,88.90
2023-05-12T03:26:37.180Z,88.89
2023-05-12T03:29:04.401Z,90.23
2023-05-12T03:31:31.642Z,90.10
2023-05-12T03:33:58.813Z,89.38
2023-05-12T03:36:26.065Z,91.70
2023-05-12T03:38:53.178Z,91.92
2023-05-12T03:41:20.240Z,91.97
2023-05-12T03:43:47.559Z,93.11
2023-05-12T03:46:15.001Z,93.59
2023-05-12T03:48:42.191Z,94.56
2023-05-12T03:51:09.489Z,94.28
2023-05-12T03:53:36.606Z,93.95
2023-05-12T03:56:07.174Z,93.66
2023-05-12T03:58:34.333Z,95.00
2023-05-12T04:01:04.313Z,95.83
2023-05-12T04:03:31.507Z,95.71
2023-05-12T04:06:03.075Z,95.34
2023-05-12T04:08:31.253Z,94.38
2023-05-12T04:11:01.096Z,94.91
2023-05-12T04:13:29.995Z,95.45
2023-05-12T04:15:58.340Z,96.65
2023-05-12T04:18:29.106Z,96.08
2023-05-12T04:20:56.683Z,96.29
2023-05-12T04:23:24.054Z,95.79
2023-05-12T04:25:51.352Z,97.02
2023-05-12T04:28:18.497Z,97.22
2023-05-12T04:30:45.920Z,97.33
2023-05-12T04:33:13.007Z,97.23
2023-05-12T04:35:41.196Z,98.11
2023-05-12T04:38:13.511Z,98.06
2023-05-12T04:40:42.499Z,98.00
2023-05-12T04:43:59.882Z,98.11
2023-05-12T04:45:59.311Z,98.64
2023-05-12T04:48:28.664Z,97.83
2023-05-12T04:50:59.648Z,98.38
2023-05-12T04:53:27.608Z,99.63
2023-05-12T04:55:56.593Z,100.00
2023-05-12T04:58:24.709Z,100.00
2023-05-12T05:00:53.087Z,100.00
2023-05-12T05:03:20.498Z,100.00
2023-05-12T05:05:49.199Z,100.00
2023-05-12T05:08:17.033Z,100.00
2023-05-12T05:10:44.235Z,100.00
2023-05-12T05:13:11.368Z,100.00
2023-05-12T05:15:38.579Z,100.00
2023-05-12T05:18:06.121Z,99.38
2023-05-12T05:20:34.698Z,100.00
2023-05-12T05:23:02.185Z,99.97
2023-05-12T05:25:29.439Z,100.00
2023-05-12T05:27:56.613Z,100.00
2023-05-12T05:30:23.823Z,99.48
2023-05-12T05:32:51.210Z,99.49
2023-05-12T05:35:18.900Z,98.89
2023-05-12T05:37:48.635Z,97.71
2023-05-12T05:40:15.819Z,97.39
2023-05-12T05:42:43.328Z,99.17
2023-05-12T05:45:11.422Z,99.11
2023-05-12T05:47:40.372Z,98.36
2023-05-12T05:50:09.058Z,98.07
2023-05-12T05:52:38.783Z,98.32
2023-05-12T05:55:06.552Z,97.89
2023-05-12T05:57:33.688Z,98.40
2023-05-12T06:00:00.996Z,98.36
2023-05-12T06:02:28.632Z,98.19
2023-05-12T06:04:55.834Z,98.59
2023-05-12T06:07:23.073Z,97.67
2023-05-12T06:09:50.318Z,98.05
2023-05-12T06:12:17.398Z,98.44
2023-05-12T06:14:44.568Z,98.24
2023-05-12T06:17:11.973Z,98.96
2023-05-12T06:19:39.585Z,99.38
2023-05-12T06:22:06.789Z,99.84
2023-05-12T06:24:33.836Z,100.00
2023-05-12T06:27:01.502Z,100.00
2023-05-12T06:29:28.722Z,100.00
2023-05-12T06:31:55.912Z,100.00
2023-05-12T06:34:23.228Z,100.00
2023-05-12T06:36:50.319Z,100.00
2023-05-12T06:39:17.534Z,100.00
2023-05-12T06:41:44.584Z,99.85
2023-05-12T06:44:20.157Z,99.42
2023-05-12T06:46:52.261Z,99.62
2023-05-12T06:49:21.324Z,99.38
2023-05-12T06:51:48.446Z,98.61
2023-05-12T06:54:15.571Z,98.00
2023-05-12T06:56:42.642Z,98.28
2023-05-12T06:59:10.009Z,97.92
2023-05-12T07:01:37.176Z,98.92
2023-05-12T07:04:04.599Z,98.70
2023-05-12T07:06:32.563Z,98.82
2023-05-12T07:08:59.709Z,99.19
2023-05-12T07:11:26.933Z,96.09
2023-05-12T07:13:54.152Z,95.43
2023-05-12T07:16:21.556Z,97.67
2023-05-12T07:18:48.835Z,97.20
2023-05-12T07:21:15.975Z,95.90
2023-05-12T07:23:43.151Z,96.29
2023-05-12T07:26:10.373Z,95.17
2023-05-12T07:28:38.234Z,94.24
2023-05-12T07:31:07.330Z,94.69
2023-05-12T07:33:35.426Z,92.58
2023-05-12T07:36:04.835Z,93.35
2023-05-12T07:38:32.851Z,93.19
2023-05-12T07:41:00.487Z,91.81
2023-05-12T07:43:27.855Z,92.22
2023-05-12T07:45:56.277Z,92.65
2023-05-12T07:48:23.503Z,92.59
2023-05-12T07:50:50.675Z,92.85
2023-05-12T07:53:17.752Z,92.24
2023-05-12T07:55:45.627Z,92.76
2023-05-12T07:58:13.109Z,92.57
2023-05-12T08:00:40.787Z,92.61
2023-05-12T08:03:07.910Z,91.42
2023-05-12T08:05:35.242Z,92.45
2023-05-12T08:08:02.442Z,91.79
2023-05-12T08:10:30.192Z,91.97
2023-05-12T08:12:57.917Z,91.59
2023-05-12T08:15:25.269Z,91.50
2023-05-12T08:17:52.360Z,89.82
2023-05-12T08:20:19.482Z,90.21
2023-05-12T08:22:47.979Z,90.57
2023-05-12T08:25:15.193Z,90.12
2023-05-12T08:27:42.456Z,89.81
2023-05-12T08:30:10.061Z,90.99
2023-05-12T08:32:37.661Z,90.95
2023-05-12T08:35:05.283Z,91.28
2023-05-12T08:37:34.546Z,91.49
2023-05-12T08:40:02.385Z,90.80
2023-05-12T08:42:42.692Z,91.11
2023-05-12T08:45:11.736Z,90.90
2023-05-12T08:47:39.078Z,90.58
2023-05-12T08:50:06.870Z,90.63
2023-05-12T08:52:35.643Z,91.74
2023-05-12T08:55:04.842Z,91.08
2023-05-12T08:57:33.686Z,91.01
2023-05-12T09:00:03.029Z,90.07
2023-05-12T09:02:48.375Z,90.21
2023-05-12T09:05:19.831Z,89.10
2023-05-12T09:07:49.860Z,89.76
2023-05-12T09:10:34.605Z,90.37
2023-05-12T09:13:17.600Z,90.00
2023-05-12T09:15:47.619Z,90.60
2023-05-12T09:18:14.942Z,90.88
2023-05-12T09:20:42.692Z,91.32
2023-05-12T09:23:22.153Z,90.69
2023-05-12T09:26:01.338Z,90.03
2023-05-12T09:28:56.000Z,90.17
2023-05-12T09:31:25.045Z,90.53
2023-05-12T09:33:52.470Z,90.69
2023-05-12T09:36:23.899Z,90.72
2023-05-12T09:39:00.794Z,90.07
2023-05-12T09:41:27.929Z,92.28
2023-05-12T09:43:55.070Z,91.61
2023-05-12T09:46:22.900Z,91.29
2023-05-12T09:48:50.066Z,90.29
2023-05-12T09:51:20.997Z,89.68
2023-05-12T09:53:48.664Z,88.05
2023-05-12T09:56:17.777Z,88.53
2023-05-12T09:58:47.363Z,89.97
2023-05-12T10:01:22.829Z,89.91
2023-05-12T10:03:59.818Z,89.59
2023-05-12T10:06:30.345Z,90.39
2023-05-12T10:09:22.393Z,90.04
2023-05-12T10:11:53.744Z,90.67
2023-05-12T10:14:23.127Z,90.66
2023-05-12T10:16:51.316Z,87.30
2023-05-12T10:19:20.364Z,87.68
2023-05-12T10:21:47.953Z,86.57
2023-05-12T10:24:17.004Z,86.84
2023-05-12T10:26:44.850Z,86.78
2023-05-12T10:29:13.131Z,87.13
2023-05-12T10:31:40.926Z,87.13
2023-05-12T10:34:08.168Z,87.12
2023-05-12T10:36:49.834Z,87.14
2023-05-12T10:39:17.481Z,86.17
2023-05-12T10:41:44.609Z,85.31
2023-05-12T10:44:12.169Z,84.52
2023-05-12T10:46:39.418Z,85.28
2023-05-12T10:49:06.633Z,87.26
2023-05-12T10:51:37.905Z,88.49
2023-05-12T10:54:11.345Z,86.93
2023-05-12T10:56:38.858Z,84.66
2023-05-12T10:59:14.923Z,86.22
2023-05-12T11:01:44.838Z,85.73
2023-05-12T11:04:17.778Z,85.78
2023-05-12T11:06:46.653Z,85.32
2023-05-12T11:09:15.455Z,85.49
2023-05-12T11:11:45.651Z,85.84
2023-05-12T11:14:13.184Z,85.40
2023-05-12T11:16:44.792Z,84.16
2023-05-12T11:19:12.770Z,84.13
2023-05-12T11:21:40.522Z,84.04
2023-05-12T11:24:08.214Z,84.42
2023-05-12T11:26:35.329Z,83.88
2023-05-12T11:29:04.917Z,80.94
2023-05-12T11:31:32.093Z,79.17
2023-05-12T11:34:12.079Z,78.47
2023-05-12T11:36:42.787Z,78.09
2023-05-12T11:39:23.474Z,77.88
2023-05-12T11:41:56.608Z,77.39
2023-05-12T11:44:29.560Z,77.58
2023-05-12T11:47:11.424Z,76.62
2023-05-12T11:49:49.907Z,75.76
2023-05-12T11:52:19.552Z,76.05
2023-05-12T11:55:13.100Z,74.64
2023-05-12T11:57:40.169Z,74.56
2023-05-12T12:00:09.269Z,74.43
2023-05-12T12:02:37.678Z,75.03
2023-05-12T12:05:07.783Z,74.43
2023-05-12T12:07:36.927Z,74.66
2023-05-12T12:10:14.972Z,73.70
2023-05-12T12:12:43.085Z,74.17
2023-05-12T12:15:11.392Z,73.69
2023-05-12T12:17:40.107Z,72.14
2023-05-12T12:20:09.392Z,72.10
2023-05-12T12:22:36.663Z,73.27
2023-05-12T12:25:04.314Z,72.26
2023-05-12T12:27:31.576Z,72.56
2023-05-12T12:29:58.834Z,71.10
2023-05-12T12:32:26.120Z,71.67
2023-05-12T12:34:53.555Z,70.88
2023-05-12T12:37:20.750Z,69.55
2023-05-12T12:39:48.066Z,70.01
2023-05-12T12:42:15.881Z,70.18
2023-05-12T12:44:43.988Z,70.81
2023-05-12T12:47:11.250Z,70.48
2023-05-12T12:49:38.391Z,70.86
2023-05-12T12:52:05.937Z,70.40
2023-05-12T12:54:33.284Z,70.72
2023-05-12T12:57:00.331Z,70.09
2023-05-12T12:59:27.671Z,70.92
2023-05-12T13:01:54.750Z,71.60
2023-05-12T13:04:23.206Z,71.97
2023-05-12T13:06:50.406Z,71.22
2023-05-12T13:09:19.692Z,70.26
2023-05-12T13:11:47.937Z,70.00
2023-05-12T13:14:15.236Z,70.03
2023-05-12T13:16:43.364Z,70.38
2023-05-12T13:19:10.696Z,70.31
2023-05-12T13:21:37.972Z,71.16
2023-05-12T13:24:05.343Z,70.41
2023-05-12T13:26:32.427Z,70.73
2023-05-12T13:28:59.423Z,70.23
2023-05-12T13:31:27.070Z,70.38
2023-05-12T13:33:54.359Z,70.46
2023-05-12T13:36:21.447Z,69.38
2023-05-12T13:38:48.541Z,70.42
2023-05-12T13:41:15.905Z,70.72
2023-05-12T13:43:43.737Z,70.42
2023-05-12T13:46:10.957Z,70.62
2023-05-12T13:48:38.102Z,70.12
2023-05-12T13:51:05.479Z,70.61
2023-05-12T13:53:32.639Z,70.67
2023-05-12T13:56:15.701Z,69.89
2023-05-12T13:58:42.909Z,69.82
2023-05-12T14:01:10.834Z,68.03
2023-05-12T14:03:38.279Z,67.65
2023-05-12T14:06:05.612Z,67.60
2023-05-12T14:08:32.699Z,67.63
2023-05-12T14:11:00.025Z,68.00
2023-05-12T14:13:28.075Z,68.36
2023-05-12T14:15:55.583Z,68.27
2023-05-12T14:18:23.204Z,69.05
2023-05-12T14:20:51.049Z,68.68
2023-05-12T14:23:18.226Z,67.87
2023-05-12T14:25:45.365Z,68.27
2023-05-12T14:28:15.521Z,68.40
2023-05-12T14:30:43.830Z,68.43
2023-05-12T14:33:11.230Z,69.41
2023-05-12T14:35:38.480Z,69.18
2023-05-12T14:38:05.573Z,68.90
2023-05-12T14:40:32.757Z,68.78
2023-05-12T14:43:00.211Z,68.00
2023-05-12T14:45:27.831Z,67.65
2023-05-12T14:47:55.001Z,67.52
2023-05-12T14:50:22.537Z,67.71
2023-05-12T14:52:50.150Z,67.95
2023-05-12T14:55:17.711Z,68.84
2023-05-12T14:57:45.349Z,68.59
2023-05-12T15:00:14.651Z,68.19
2023-05-12T15:02:44.093Z,68.60
2023-05-12T15:05:13.507Z,68.31
2023-05-12T15:07:41.089Z,68.08
2023-05-12T15:10:09.013Z,67.90
2023-05-12T15:12:36.178Z,68.66
2023-05-12T15:15:06.118Z,68.08
2023-05-12T15:17:33.812Z,68.01
2023-05-12T15:20:00.976Z,68.09
2023-05-12T15:22:31.439Z,68.70
2023-05-12T15:24:59.466Z,68.07
2023-05-12T15:27:27.280Z,67.77
2023-05-12T15:29:54.397Z,67.95
2023-05-12T15:32:21.601Z,67.64
2023-05-12T15:34:48.695Z,68.08
2023-05-12T15:37:15.866Z,67.97
2023-05-12T15:39:43.422Z,67.60
2023-05-12T15:42:12.404Z,68.19
2023-05-12T15:44:39.882Z,68.82
2023-05-12T15:47:06.903Z,68.98
2023-05-12T15:49:34.095Z,69.64
2023-05-12T15:52:01.123Z,68.57
2023-05-12T15:54:28.262Z,68.40
2023-05-12T15:56:55.267Z,69.12
2023-05-12T15:59:22.389Z,69.54
2023-05-12T16:01:49.567Z,69.43
2023-05-12T16:04:16.812Z,69.97
2023-05-12T16:06:46.100Z,69.87
2023-05-12T16:09:13.839Z,69.89
2023-05-12T16:11:41.111Z,69.28
2023-05-12T16:14:08.288Z,68.81
2023-05-12T16:16:35.448Z,69.24
2023-05-12T16:19:03.661Z,69.23
2023-05-12T16:21:30.698Z,69.39
2023-05-12T16:23:57.878Z,69.38
2023-05-12T16:26:25.118Z,69.19
2023-05-12T16:28:52.676Z,69.07
2023-05-12T16:31:19.921Z,68.55
2023-05-12T16:33:47.156Z,67.81
2023-05-12T16:36:15.414Z,68.26
2023-05-12T16:38:43.676Z,68.39
2023-05-12T16:41:10.757Z,69.05
2023-05-12T16:43:38.073Z,69.31
2023-05-12T16:46:05.372Z,68.86
2023-05-12T16:48:36.422Z,68.20
2023-05-12T16:51:05.909Z,68.97
2023-05-12T16:53:34.067Z,68.68
2023-05-12T16:56:01.390Z,68.37
2023-05-12T16:58:32.296Z,67.60
2023-05-12T17:01:01.110Z,66.36
2023-05-12T17:03:29.249Z,66.32
2023-05-12T17:05:56.571Z,66.39
2023-05-12T17:08:24.735Z,65.80
2023-05-12T17:10:51.963Z,66.16
2023-05-12T17:13:19.343Z,66.31
2023-05-12T17:15:47.068Z,66.50
2023-05-12T17:18:14.376Z,67.66
2023-05-12T17:20:41.791Z,68.14
2023-05-12T17:23:09.368Z,68.05
2023-05-12T17:25:36.784Z,68.29
2023-05-12T17:28:04.684Z,67.90
2023-05-12T17:30:32.245Z,67.18
2023-05-12T17:32:59.449Z,67.24
2023-05-12T17:35:26.835Z,66.27
2023-05-12T17:37:55.647Z,65.76
2023-05-12T17:40:23.133Z,66.03
2023-05-12T17:42:50.478Z,65.52
2023-05-12T17:45:18.058Z,65.91
2023-05-12T17:47:45.683Z,65.90
2023-05-12T17:50:15.049Z,65.84
2023-05-12T17:52:43.535Z,65.63
2023-05-12T17:55:11.359Z,65.32
2023-05-12T17:57:38.591Z,65.06
2023-05-12T18:00:10.395Z,65.87
2023-05-12T18:02:44.777Z,65.51
2023-05-12T18:05:12.500Z,65.70
2023-05-12T18:07:39.693Z,65.88
2023-05-12T18:10:08.411Z,66.79
2023-05-12T18:12:36.684Z,66.68
2023-05-12T18:15:05.460Z,66.88
2023-05-12T18:17:32.910Z,66.98
2023-05-12T18:20:00.367Z,67.21
2023-05-12T18:22:27.537Z,67.96
2023-05-12T18:24:55.194Z,67.70
2023-05-12T18:27:22.469Z,67.30
2023-05-12T18:29:49.573Z,67.66
2023-05-12T18:32:17.030Z,67.57
2023-05-12T18:34:45.664Z,67.76
2023-05-12T18:37:15.608Z,67.37
2023-05-12T18:39:43.300Z,67.53
2023-05-12T18:42:11.274Z,67.70
2023-05-12T18:44:40.640Z,67.86
2023-05-12T18:47:08.759Z,68.87
2023-05-12T18:49:36.773Z,68.54
2023-05-12T18:52:04.517Z,68.48
2023-05-12T18:54:31.772Z,68.89
2023-05-12T18:56:58.921Z,68.57
2023-05-12T18:59:25.984Z,68.59
2023-05-12T19:01:53.223Z,68.74
2023-05-12T19:04:22.008Z,67.51
2023-05-12T19:06:49.391Z,67.98
2023-05-12T19:09:16.640Z,68.59
2023-05-12T19:11:44.390Z,68.19
2023-05-12T19:14:12.080Z,68.26
2023-05-12T19:16:39.993Z,68.32
2023-05-12T19:19:07.594Z,68.32
2023-05-12T19:21:34.974Z,68.80
2023-05-12T19:24:03.221Z,68.29
2023-05-12T19:26:31.001Z,68.54
2023-05-12T19:28:58.034Z,68.98
2023-05-12T19:31:25.241Z,68.96
2023-05-12T19:33:52.377Z,69.12
2023-05-12T19:36:19.598Z,69.22
2023-05-12T19:38:46.700Z,68.87
2023-05-12T19:41:13.792Z,68.96
2023-05-12T19:43:41.197Z,68.71
2023-05-12T19:46:08.615Z,68.65
2023-05-12T19:48:36.192Z,69.01
2023-05-12T19:51:03.444Z,69.90
2023-05-12T19:53:30.600Z,70.08
2023-05-12T19:55:57.679Z,69.95
2023-05-12T19:58:24.878Z,70.49
2023-05-12T20:00:52.188Z,71.01
2023-05-12T20:03:19.404Z,71.23
2023-05-12T20:05:48.519Z,71.35
2023-05-12T20:08:16.068Z,74.38
2023-05-12T20:10:44.435Z,73.50
2023-05-12T20:13:11.865Z,73.06
2023-05-12T20:15:40.095Z,73.77
2023-05-12T20:18:07.250Z,71.99
2023-05-12T20:20:34.319Z,71.38
2023-05-12T20:23:01.535Z,71.25
2023-05-12T20:25:31.606Z,70.71
2023-05-12T20:27:59.525Z,71.94
2023-05-12T20:30:26.917Z,72.38
2023-05-12T20:32:54.058Z,72.66
2023-05-12T20:35:21.538Z,74.61
2023-05-12T20:37:48.985Z,76.41
2023-05-12T20:40:16.286Z,75.52
2023-05-12T20:42:46.171Z,77.43
2023-05-12T20:45:14.127Z,79.43
2023-05-12T20:47:42.113Z,80.95
2023-05-12T20:50:09.861Z,83.55
2023-05-12T20:52:38.607Z,85.75
2023-05-12T20:55:09.881Z,85.09
2023-05-12T20:57:37.969Z,85.93
2023-05-12T21:00:07.568Z,84.42
2023-05-12T21:02:34.850Z,87.42
2023-05-12T21:05:02.046Z,88.82
2023-05-12T21:07:30.737Z,89.57
2023-05-12T21:10:00.285Z,88.86
2023-05-12T21:12:27.771Z,88.41
2023-05-12T21:14:55.093Z,89.54
2023-05-12T21:17:22.385Z,88.18
2023-05-12T21:19:49.656Z,89.60
2023-05-12T21:22:16.832Z,90.04
2023-05-12T21:24:44.369Z,91.29
2023-05-12T21:27:11.848Z,92.84
2023-05-12T21:29:39.100Z,92.69
2023-05-12T21:32:06.651Z,93.63
2023-05-12T21:34:36.062Z,98.05
2023-05-12T21:37:03.267Z,100.00
2023-05-12T21:39:30.363Z,100.00
2023-05-12T21:41:57.514Z,100.00
2023-05-12T21:44:24.767Z,100.00
2023-05-12T21:46:51.885Z,100.00
2023-05-12T21:49:19.027Z,100.00
2023-05-12T21:51:46.164Z,100.00
2023-05-12T21:54:13.465Z,100.00
2023-05-12T21:56:40.669Z,100.00
2023-05-12T21:59:07.715Z,100.00
2023-05-12T22:01:34.937Z,100.00
2023-05-12T22:04:02.181Z,100.00
2023-05-12T22:06:29.272Z,100.00
2023-05-12T22:08:56.320Z,100.00
2023-05-12T22:11:24.415Z,100.00
2023-05-12T22:13:51.444Z,100.00
2023-05-12T22:16:23.577Z,100.00
2023-05-12T22:18:53.389Z,100.00
2023-05-12T22:21:20.731Z,100.00
2023-05-12T22:23:48.174Z,100.00
2023-05-12T22:26:15.307Z,100.00
2023-05-12T22:28:42.758Z,100.00
2023-05-12T22:31:09.930Z,100.00
2023-05-12T22:33:37.028Z,100.00
2023-05-12T22:36:04.330Z,100.00
2023-05-12T22:38:31.482Z,100.00
2023-05-12T22:40:58.596Z,100.00
2023-05-12T22:43:25.834Z,100.00
2023-05-12T22:45:53.074Z,100.00
2023-05-12T22:48:20.349Z,100.00
2023-05-12T22:50:47.679Z,100.00
2023-05-12T22:53:15.385Z,100.00
2023-05-12T22:55:42.401Z,100.00
2023-05-12T22:58:11.655Z,100.00
2023-05-12T23:00:39.072Z,100.00
2023-05-12T23:03:07.470Z,100.00
2023-05-12T23:05:34.617Z,100.00
2023-05-12T23:08:03.095Z,100.00
2023-05-12T23:10:30.488Z,100.00
2023-05-12T23:12:57.680Z,100.00
2023-05-12T23:15:24.826Z,100.00
2023-05-12T23:17:52.281Z,100.00
2023-05-12T23:20:19.839Z,100.00
2023-05-12T23:22:47.002Z,100.00
2023-05-12T23:25:14.145Z,100.00
2023-05-12T23:27:41.399Z,100.00
2023-05-12T23:30:08.801Z,100.00
2023-05-12T23:32:36.234Z,100.00
2023-05-12T23:35:04.163Z,100.00
2023-05-12T23:37:31.175Z,100.00
2023-05-12T23:39:58.264Z,100.00
2023-05-12T23:42:25.262Z,100.00
2023-05-12T23:44:52.447Z,100.00
2023-05-12T23:47:19.720Z,100.00
2023-05-12T23:49:46.822Z,100.00
2023-05-12T23:52:13.916Z,100.00
2023-05-12T23:54:41.188Z,100.00
2023-05-12T23:57:08.325Z,100.00
2023-05-12T23:59:35.393Z,100.00
